Flight Track Log - Related Links

Times and Time Zones

All times are in EST time to prevent confusion due to time zone crossing. See the SCX8700 flight status page for this flight to view local times or setup timezone preferences in your user account.

Time Position Orientation Groundspeed Altitude Reporting Facility
EST Latitude Longitude Course Direction KTS MPH feet Rate Location/Type
Fri 17:37:20 44.9000 -93.2333 12° North 152 175 2,300  Level Minneapolis TRACON
Fri 17:38:06 44.9381 -93.2217 12° North 190 219 3,800 2,278 Climbing Minneapolis Center
Fri 17:39:08 44.9689 -93.1547 57° Northeast 266 306 6,400 2,780 Climbing Minneapolis Center
Fri 17:40:09 44.9233 -93.0453 120° Southeast 317 365 9,500 2,927 Climbing Minneapolis Center
Fri 17:41:11 44.8717 -92.9272 122° Southeast 349 402 12,400 3,242 Climbing Minneapolis Center
Fri 17:42:13 44.8181 -92.8025 121° Southeast 368 423 16,200 3,951 Climbing Minneapolis Center
Fri 17:43:14 44.7489 -92.6461 122° Southeast 387 445 20,500 3,463 Climbing Minneapolis Center
Fri 17:44:16 44.6903 -92.5106 121° Southeast 399 459 23,300 1,984 Climbing Minneapolis Center
Fri 17:49:32 44.3230 -91.7230 121° Southeast 492 566 33,000 1,798 Climbing FlightAware (LPVM)
Fri 17:50:23 44.2731 -91.5922 118° Southeast 497 572 34,300 1,446 Climbing FlightAware (LPVM)
Fri 17:50:55 44.2341 -91.4905 118° Southeast 498 573 35,000 1,304 Climbing FlightAware (LPVM)
Fri 17:51:55 44.1712 -91.3270 118° Southeast 498 573 36,300 1,152 Climbing FlightAware (LPVM)
Fri 17:52:34 44.1260 -91.2107 118° Southeast 501 577 36,900 943 Climbing FlightAware (LPVM)
Fri 17:53:05 44.0923 -91.1236 118° Southeast 502 578 37,400 1,140 Climbing FlightAware (LPVM)
Fri 17:54:35 43.9931 -90.8702 118° Southeast 493 567 39,200 1,116 Climbing FlightAware (LPVM)
Fri 17:55:14 43.9503 -90.7614 119° Southeast 489 563 39,800 975 Climbing FlightAware (LPVM)
Fri 17:55:55 43.9154 -90.6729 119° Southeast 484 557 40,500 769 Climbing FlightAware (LPVM)
Fri 17:56:32 43.8662 -90.5484 119° Southeast 486 559 40,800 120 Climbing FlightAware (LPVM)
Fri 18:00:04 43.6797 -90.0814 119° Southeast 494 568 41,000 44 Climbing FlightAware
Fri 18:01:07 43.6797 -90.0814 119° Southeast 497 572 41,000  Level FlightAware (KMSN)
Fri 18:01:44 43.6797 -90.0814 119° Southeast 498 573 41,000  Level FlightAware (KMSN)
Fri 18:02:25 43.6797 -90.0814 119° Southeast 501 577 41,000  Level FlightAware (KMSN)
Fri 18:05:26 43.3395 -89.0322 114° Southeast 506 582 41,000  Level FlightAware (KMSN)
Fri 18:06:06 43.3040 -88.9116 112° Southeast 507 583 41,000  Level FlightAware (KMSN)
Fri 18:06:40 43.2734 -88.8092 112° Southeast 508 585 41,000  Level FlightAware
Fri 18:07:00 43.2554 -88.7498 113° Southeast 509 586 41,000  Level FlightAware (KMSN)
Fri 18:07:32 43.2272 -88.6559 112° Southeast 507 583 41,000  Level FlightAware
Fri 18:08:16 43.1887 -88.5254 112° Southeast 506 582 41,000  Level FlightAware (KMSN)
Fri 18:08:47 43.1690 -88.4591 112° Southeast 506 582 41,000  Level FlightAware (KMSN)
Fri 18:09:22 43.1312 -88.3327 112° Southeast 506 582 41,000  Level FlightAware
Fri 18:09:52 43.1081 -88.2402 109° East 508 585 41,000  Level FlightAware
Fri 18:10:22 43.0896 -88.1467 105° East 509 586 41,000  Level FlightAware
Fri 18:10:55 43.0697 -88.0470 105° East 509 586 41,000  Level FlightAware (KMSN)
Fri 18:11:26 43.0503 -87.9498 105° East 509 586 41,000  Level FlightAware (KMSN)
Fri 18:12:01 43.0287 -87.8414 105° East 510 587 41,000  Level FlightAware
Fri 18:12:32 43.0110 -87.7541 105° East 510 587 41,000  Level FlightAware
Fri 18:13:02 42.9907 -87.6540 105° East 510 587 41,000  Level FlightAware
Fri 18:13:32 42.9713 -87.5587 106° East 510 587 41,000  Level FlightAware
Fri 18:14:02 42.9522 -87.4651 106° East 510 587 41,000  Level FlightAware
Fri 18:14:32 42.9333 -87.3728 106° East 510 587 41,000  Level FlightAware
Fri 18:15:12 42.9078 -87.2494 106° East 509 586 41,000  Level FlightAware
Fri 18:15:51 42.8882 -87.1545 106° East 509 586 41,000  Level FlightAware
Fri 18:16:22 42.8632 -87.0359 106° East 508 585 41,000  Level FlightAware
Fri 18:17:01 42.8378 -86.9155 106° East 507 583 41,000  Level FlightAware
Fri 18:17:38 42.8161 -86.8129 106° East 505 581 41,000  Level FlightAware
Fri 18:18:12 42.7921 -86.6994 106° East 505 581 41,000  Level FlightAware
Fri 18:18:42 42.7734 -86.6113 106° East 506 582 41,000  Level FlightAware
Fri 18:19:20 42.7484 -86.4943 106° East 503 579 41,000  Level FlightAware
Fri 18:19:50 42.7284 -86.4023 106° East 503 579 41,000  Level FlightAware
Fri 18:20:37 42.6978 -86.2598 106° East 503 579 41,000  Level FlightAware
Fri 18:21:35 42.6639 -86.1047 106° East 504 580 41,000  Level FlightAware
Fri 18:22:12 42.6340 -85.9697 107° East 504 580 41,000  Level FlightAware
Fri 18:23:02 42.6042 -85.8345 107° East 502 578 41,000  Level FlightAware
Fri 18:23:50 42.5687 -85.6752 107° East 502 578 41,000  Level FlightAware
Fri 18:24:35 42.5386 -85.5404 107° East 503 579 41,000  Level FlightAware
Fri 18:25:11 42.5147 -85.4331 107° East 502 578 41,000  Level FlightAware
Fri 18:25:42 42.4951 -85.3465 107° East 501 577 41,000  Level FlightAware
Fri 18:26:21 42.4672 -85.2241 107° East 499 574 41,000  Level FlightAware
Fri 18:27:31 42.4187 -85.0139 107° East 499 574 41,000  Level FlightAware
Fri 18:28:12 42.3919 -84.8977 107° East 497 572 41,000  Level FlightAware
Fri 18:28:43 42.3696 -84.8017 107° East 497 572 41,000  Level FlightAware
Fri 18:29:13 42.3497 -84.7156 107° East 499 574 41,000  Level FlightAware
Fri 18:29:43 42.3286 -84.6249 107° East 502 578 41,000  Level FlightAware
Fri 18:30:21 42.3056 -84.5115 105° East 507 583 41,000  Level FlightAware
Fri 18:30:53 42.2915 -84.4102 101° East 507 583 41,000  Level FlightAware
Fri 18:31:49 42.2674 -84.2405 101° East 505 581 41,000  Level FlightAware
Fri 18:32:23 42.2517 -84.1317 101° East 504 580 41,000  Level FlightAware
Fri 18:35:28 42.1695 -83.5729 101° East 500 575 41,000  Level FlightAware (CYYZ)
Fri 18:35:52 42.1624 -83.5251 101° East 498 573 41,000  Level FlightAware (EPLB / LUZ)
Fri 18:36:32 42.1390 -83.3705 101° East 497 572 41,000  Level FlightAware (EPLB / LUZ)
Fri 18:37:00 42.1298 -83.3103 102° East 498 573 41,000  Level FlightAware (CYYZ)
Fri 18:37:23 42.1155 -83.2172 102° East 497 572 41,000  Level FlightAware (EPLB / LUZ)
Fri 18:37:30 42.1205 -83.2496 282° West 498 573 41,000  Level FlightAware (CYYZ)
Fri 18:38:00 42.0986 -83.1069 102° East 500 575 41,000  Level FlightAware (CYYZ)
Fri 18:38:29 42.0873 -83.0318 101° East 502 578 41,000  Level FlightAware (CYYZ)
Fri 18:38:36 42.0821 -82.9968 101° East 501 577 41,000  Level FlightAware (EPLB / LUZ)
Fri 18:38:59 42.0713 -82.9252 101° East 502 578 41,000  Level FlightAware (CYYZ)
Fri 18:39:29 42.0573 -82.8323 101° East 502 578 41,000  Level FlightAware (CYYZ)
Fri 18:39:59 42.0434 -82.7412 102° East 503 579 41,000  Level FlightAware (CYYZ)
Fri 18:40:29 42.0297 -82.6518 102° East 503 579 41,000  Level FlightAware (CYYZ)
Fri 18:40:59 42.0153 -82.5588 102° East 503 579 41,000  Level FlightAware (CYYZ)
Fri 18:41:30 42.0011 -82.4669 102° East 504 580 41,000  Level FlightAware (CYYZ)
Fri 18:41:53 41.9899 -82.3945 102° East 504 580 41,000  Level FlightAware (EPLB / LUZ)
Fri 18:41:59 41.9875 -82.3789 102° East 504 580 41,000  Level FlightAware (CYYZ)
Fri 18:42:29 41.9728 -82.2849 102° East 504 580 41,000  Level FlightAware (CYYZ)
Fri 18:42:59 41.9585 -82.1937 102° East 504 580 41,000  Level FlightAware (CYYZ)
Fri 18:43:29 41.9473 -82.1235 102° East 503 579 41,000  Level FlightAware (CYYZ)
Fri 18:43:59 41.9291 -82.0091 102° East 502 578 41,000  Level FlightAware (CYYZ)
Fri 18:44:29 41.9156 -81.9257 102° East 502 578 41,000  Level FlightAware (CYYZ)
Fri 18:44:59 41.9003 -81.8313 102° East 501 577 41,000  Level FlightAware (CYYZ)
Fri 18:45:30 41.8849 -81.7363 102° East 500 575 41,000  Level FlightAware (CYYZ)
Fri 18:45:59 41.8718 -81.6563 102° East 500 575 41,000  Level FlightAware (CYYZ)
Fri 18:46:30 41.8551 -81.5548 102° East 501 577 41,000  Level FlightAware (CYYZ)
Fri 18:47:00 41.8407 -81.4672 102° East 501 577 41,000  Level FlightAware (CYYZ)
Fri 18:47:29 41.8264 -81.3807 102° East 501 577 41,000  Level FlightAware (CYYZ)
Fri 18:47:59 41.8109 -81.2877 103° East 502 578 41,000  Level FlightAware (CYYZ)
Fri 18:48:29 41.7961 -81.1988 103° East 502 578 41,000  Level FlightAware (CYYZ)
Fri 18:49:00 41.7807 -81.1066 103° East 502 578 41,000  Level FlightAware (CYYZ)
Fri 18:49:30 41.7648 -81.0122 103° East 503 579 41,000  Level FlightAware (CYYZ)
Fri 18:49:44 41.7571 -80.9669 103° East 502 578 41,000  Level FlightAware (EPLB / LUZ)
Fri 18:50:00 41.7499 -80.9242 103° East 503 579 41,000  Level FlightAware (CYYZ)
Fri 18:50:29 41.7341 -80.8320 103° East 503 579 41,000  Level FlightAware (CYYZ)
Fri 18:50:37 41.7306 -80.8095 102° East 503 579 41,000  Level FlightAware (EPLB / LUZ)
Fri 18:51:17 41.7260 -80.7407 95° East 511 588 41,000  Level FlightAware (EPLB / LUZ)
Fri 18:51:20 41.7230 -80.6813 94° East 512 589 41,000  Level FlightAware (CYYZ)
Fri 18:51:49 41.7176 -80.5833 94° East 512 589 41,000  Level FlightAware (EPLB / LUZ)
Fri 18:51:50 41.7174 -80.5798 94° East 513 590 41,000  Level FlightAware (CYYZ)
Fri 18:52:19 41.7126 -80.4908 94° East 514 592 41,000  Level FlightAware (CYYZ)
Fri 18:52:50 41.7073 -80.3894 94° East 514 592 41,000  Level FlightAware (CYYZ)
Fri 18:53:09 41.7064 -80.3707 94° East 515 593 41,000  Level FlightAware (CYYZ)
Fri 18:53:43 41.7049 -80.3404 94° East 514 592 41,000  Level FlightAware (EPLB / LUZ)
Fri 18:53:49 41.6990 -80.2206 94° East 513 590 41,000 -1,135 Level FlightAware (CYYZ)
Fri 18:54:20 41.6942 -80.1078 93° East 509 586 40,300 -1,180 Descending FlightAware (CYYZ)
Fri 18:54:50 41.6920 -80.0128 92° East 509 586 39,800 -1,017 Descending FlightAware (CYYZ)
Fri 18:55:19 41.6903 -79.9190 91° East 503 579 39,300 -973 Descending FlightAware (CYYZ)
Fri 18:55:27 41.6900 -79.8976 91° East 502 578 39,200 -968 Descending FlightAware (EPLB / LUZ)
Fri 18:55:50 41.6888 -79.8283 91° East 503 579 38,800 -1,019 Descending FlightAware (CYYZ)
Fri 18:56:20 41.6883 -79.7340 90° East 506 582 38,300 -1,080 Descending FlightAware (CYYZ)
Fri 18:56:40 41.6887 -79.6763 89° East 500 575 37,900 -800 Descending FlightAware (EPLB / LUZ)
Fri 18:56:50 41.6889 -79.6417 90° East 501 577 37,900 -769 Level FlightAware (CYYZ)
Fri 18:57:19 41.6886 -79.5477 90° East 502 578 37,400 -1,029 Descending FlightAware (CYYZ)
Fri 18:57:25 41.6886 -79.5387 90° East 500 575 37,300 -968 Descending FlightAware (EPLB / LUZ)
Fri 18:57:50 41.6880 -79.4540 91° East 503 579 36,900 -1,000 Descending FlightAware (CYYZ)
Fri 18:58:19 41.6870 -79.3662 91° East 511 588 36,400 -915 Descending FlightAware (CYYZ)
Fri 18:58:49 41.6865 -79.2658 90° East 516 594 36,000 -632 Descending FlightAware (CYYZ)
Fri 18:58:57 41.6865 -79.2518 90° East 514 592 36,000  Level FlightAware (EPLB / LUZ)
Fri 18:59:19 41.6830 -79.1724 93° East 503 579 36,000  Level FlightAware (CYYZ)
Fri 18:59:50 41.6687 -79.0839 102° East 488 562 36,000  Level FlightAware (CYYZ)
Fri 18:59:52 41.6693 -79.0865 287° West 484 557 36,000  Level FlightAware (EPLB / LUZ)
Fri 19:00:29 41.6441 -78.9878 109° East 485 558 36,000  Level FlightAware (CYYZ)
Fri 19:00:37 41.6640 -79.0649 289° West 484 557 36,000  Level FlightAware (EPLB / LUZ)
Fri 19:00:59 41.6198 -78.8951 109° East 485 558 36,000  Level FlightAware (CYYZ)
Fri 19:01:29 41.5954 -78.8017 109° East 486 559 36,000  Level FlightAware (CYYZ)
Fri 19:01:55 41.5918 -78.7879 109° East 486 559 36,000 -790 Level FlightAware (CYYZ)
Fri 19:04:16 41.4719 -78.3340 109° East 463 533 33,800 -857 Descending FlightAware (KWWD)
Fri 19:05:11 41.4450 -78.2319 109° East 467 537 33,200 -923 Descending Cleveland Center
Fri 19:06:13 41.3939 -78.0419 110° East 457 526 32,000 -1,072 Descending Cleveland Center
Fri 19:09:34 41.2483 -77.5078 110° East 419 482 28,500 -1,025 Descending FlightAware (KWWD)
Fri 19:12:16 41.1404 -77.1205 110° East 406 467 25,800 -339 Descending FlightAware (KWWD)
Fri 19:17:32 40.9316 -76.3850 110° East 373 429 25,800 -2,053 Level FlightAware (KWWD)
Fri 19:18:30 40.8954 -76.2599 111° Southeast 371 427 13,000 -8,617 Descending FlightAware (KWWD)
Fri 19:19:06 40.8741 -76.1857 111° Southeast 344 396 12,300 -1,212 Descending FlightAware (KWWD)
Fri 19:20:14 40.8366 -76.0570 111° Southeast 321 369 10,900 -1,371 Descending FlightAware (KWWD)
Fri 19:20:51 40.8186 -75.9961 111° Southeast 322 371 9,900 -1,862 Descending FlightAware (KWWD)
Fri 19:21:12 40.8050 -75.9501 111° Southeast 321 369 9,100 -1,833 Descending FlightAware (KWWD)
Fri 19:21:27 40.7990 -75.9211 105° East 330 380 8,800 -1,105 Descending FlightAware (KWWD)
Fri 19:21:50 40.7943 -75.8753 98° East 332 382 8,400 -1,050 Descending FlightAware (KWWD)
Fri 19:22:07 40.7916 -75.8414 96° East 330 380 8,100 -909 Descending FlightAware (KWWD)
Fri 19:22:23 40.7891 -75.8103 96° East 327 376 7,900 -1,076 Descending FlightAware (KWWD)
Fri 19:24:32 40.7677 -75.5618 96° East 292 336 5,500 -1,076 Descending FlightAware (KWWD)
Fri 19:24:48 40.7652 -75.5339 97° East 283 326 5,300 -514 Descending FlightAware (KWWD)
Fri 19:25:07 40.7624 -75.5026 97° East 272 313 5,200 -933 Descending FlightAware (KWWD)
Fri 19:25:33 40.7586 -75.4602 97° East 262 302 4,600 -1,304 Descending FlightAware (KWWD)
Fri 19:25:53 40.7560 -75.4304 97° East 249 287 4,200 -1,263 Descending FlightAware (KWWD)
Fri 19:26:11 40.7537 -75.4032 97° East 229 264 3,800 -1,273 Descending FlightAware (KWWD)
Fri 19:26:26 40.7517 -75.3826 97° East 213 245 3,500 -1,013 Descending FlightAware (KWWD)
Fri 19:27:28 40.7297 -75.3361 97° East 174 200 2,500 -836 Descending New Center
Fri 19:28:28 40.7014 -75.3614 214° Southwest 108 124 1,800 -650 Descending New Center
Fri 19:29:28 40.6794 -75.3928 227° Southwest 119 137 1,200 1,600 Descending New Center
Fri 19:30:28 40.6494 -75.4156 210° Southwest 119 137 5,000 1,900 Climbing New Center
Fri 19:31:28 40.6214 -75.4408 214° Southwest 119 137 5,000  Level New Center
Fri 19:32:28 40.5953 -75.4664 217° Southwest 119 137 5,000  Level New Center

Login

Don't have an account? Register now (free) for customized features, flight alerts, and more!